Aviation Digital Data Service (ADDS)

Output produced by METARs form (1142 UTC 20 April 2014)
found at http://aviationweather.gov/adds/metars/
 
KDAG 201050Z AUTO 27015KT 10SM CLR 20/04 A3001 RMK AO2 SLP139 T02000044
KDAG 201128Z 2012/2112 27013KT P6SM SKC 
     FM201600 32007KT P6SM SKC 
     FM210100 26011KT P6SM SKC
       
KEDW 201058Z AUTO 19007KT 10SM CLR 14/M01 A3002 RMK AO2 SLP147 T01411006
TAF KEDW 1918/2100 20012KT 9999 FEW120 BKN250 QNH2993INS 
     TEMPO 2000/2003 27010G18KT 
     BECMG 2006/2007 23006KT 9999 FEW250 QNH2991INS 
     BECMG 2019/2020 25012KT 9999 SKC QNH3001INS 
     BECMG 2022/2023 25015G25KT SKC QNH3002INS TX30/2023Z TN15/2013Z LAST NO AMDS AFT 1921 NEXT 2110
       
KVCV 201135Z AUTO 17004KT 10SM CLR 13/03 A3006 RMK AO2
KONT 201053Z 23003KT 10SM CLR 14/11 A3004 RMK AO2 SLP161 T01440111
KONT 201128Z 2012/2118 VRB04KT P6SM SKC 
     FM202100 25011KT P6SM SKC 
     FM210400 VRB04KT P6SM SKC
       
KNID 201056Z AUTO 21007KT 10SM 14/05 A2999 RMK AO2 SLP141 T01440050 $
KSNA 201053Z AUTO 10004KT 9SM CLR 16/12 A3004 RMK AO2 SLP170 T01560122 TSNO
KSNA 201128Z 2012/2112 VRB04KT P6SM SCT010 
     TEMPO 2012/2016 BKN010 
     FM202000 25008KT P6SM SKC 
     FM210200 VRB04KT P6SM SKC 
     FM210800 VRB04KT 5SM BR BKN008
       
KSAN 201051Z 00000KT 10SM OVC011 17/13 A3005 RMK AO2 SLP175 T01670128 $
KSAN 201128Z 2012/2118 VRB04KT P6SM OVC011 
     FM201600 VRB04KT P6SM SCT015 
     FM202000 25008KT P6SM SCT015 
     FM210200 26004KT P6SM SCT012 
     FM210500 VRB04KT 6SM BR OVC009 
     FM211600 VRB04KT P6SM SCT010
       
KNXP 201056Z AUTO 28010KT 10SM CLR 19/02 A3008 RMK AO2 SLP152 T01940022 $
TAF KNXP 2009/2109 30009KT 9999 SCT120 QNH3004INS 
     BECMG 2021/2023 27008KT 9999 SCT200 QNH3002INS 
     TEMPO 2103/2106 27015G21KT AUTOMATED SENSOR METWATCH 2009 TIL 2215 T16/2013Z T27/2023Z
       
KPSP 201053Z AUTO 00000KT 10SM CLR 21/10 A2996 RMK AO2 SLP141 T02110100 TSNO
KPSP 201128Z 2012/2112 VRB04KT P6SM SKC 
     FM210000 33008KT P6SM SKC 
     FM210600 VRB04KT P6SM SKC
       
KLAX 201053Z 10004KT 8SM CLR 14/12 A3004 RMK AO2 SLP170 T01440122 $
KLAX 201101Z 2011/2112 VRB03KT P6SM FEW008 SCT200 
     FM201400 VRB03KT 6SM BR BKN008 
     FM201700 26006KT P6SM SCT010 
     FM202000 26012KT P6SM SKC 
     FM210200 25009KT P6SM SKC 
     FM210500 VRB03KT P6SM SKC 
     FM211100 VRB03KT 5SM BR SKC
       
KCNO 201053Z AUTO 13004KT 5SM BR CLR 11/10 A3005 RMK AO2 SLP172 T01060100
KSMO 201051Z 00000KT 10SM CLR 15/12 A3004 RMK AO2 SLP170 T01500117
KLGB 201106Z 12004KT 9SM FEW011 15/12 A3003 RMK AO2 $
KLGB 201116Z 2011/2106 VRB03KT P6SM SCT011 
     TEMPO 2011/2015 6SM BR BKN011 
     FM201700 VRB03KT P6SM SCT250 
     FM202000 20007KT P6SM SKC 
     FM202300 29008KT P6SM SKC 
     FM210300 VRB05KT P6SM SKC
       
KVNY 201051Z AUTO 00000KT 10SM CLR 14/11 A3003 RMK AO2 SLP162 T01440106
KVNY 200533Z 2006/2106 VRB05KT P6SM SKC 
     FM202100 15008KT P6SM SKC 
     FM210300 VRB05KT P6SM SKC
       
KBUR 201053Z 13003KT 10SM CLR 15/11 A3003 RMK AO2 SLP158 T01500106 $
KBUR 200533Z 2006/2106 17007KT P6SM SCT200 
     FM200800 VRB03KT P6SM SKC 
     FM201800 14004KT P6SM SKC 
     FM202100 18008KT P6SM SKC 
     FM210200 VRB05KT P6SM SKC
       
KBFL 201054Z AUTO 00000KT 10SM CLR 14/03 A3009 RMK AO2 SLP185 T01390033
KBFL 201133Z 2012/2112 VRB03KT P6SM SKC 
     FM201900 31009KT P6SM SKC 
     FM210300 VRB03KT P6SM SKC
       
KPMD 201053Z 18006KT 10SM CLR 12/05 A3007 RMK AO2 SLP161 T01170050
KPMD 200533Z 2006/2106 23008KT P6SM SKC 
     FM201400 VRB03KT P6SM SKC 
     FM201800 29005KT P6SM SKC 
     FM202000 24010KT P6SM SKC 
     FM202200 25014G22KT P6SM SKC 
     FM210400 25010KT P6SM SKC
       
KOXR 201051Z AUTO 01003KT 8SM CLR 13/11 A3002 RMK AO2 SLP165 T01280106
KOXR 201015Z 2010/2106 VRB03KT P6SM SKC 
     FM201300 VRB03KT 6SM BR BKN010 
     FM201600 VRB03KT 5SM HZ SCT010 
     FM201800 27010KT P6SM SKC 
     FM210400 VRB03KT P6SM SKC
       
KWJF 201056Z AUTO 26011KT 10SM CLR 15/M04 A3005 RMK AO2 SLP163 T01501039
KWJF 200904Z 2009/2106 26014G24KT P6SM SCT200 
     FM201100 21005KT P6SM SKC 
     FM201400 VRB03KT P6SM SKC 
     FM201800 29005KT P6SM SKC 
     FM202000 23010KT P6SM SKC 
     FM202200 24018G25KT P6SM SKC 
     FM210400 24010KT P6SM SKC
       
KCMA 201055Z 00000KT 9SM CLR 13/10 A3002 RMK AO2 SLP173 T01280100
KFAT 201053Z 32007KT 10SM CLR 14/09 A3007 RMK AO2 SLP178 T01390094
KFAT 201133Z 2012/2112 31007KT P6SM SKC 
     FM201500 VRB03KT P6SM SKC 
     FM202100 31008KT P6SM SKC 
     FM210400 VRB03KT P6SM SKC
       
KEED 201056Z AUTO 26005KT 10SM CLR 22/03 A2995 RMK AO2 SLP113 T02170033 $
KEED 201128Z 2012/2112 VRB04KT P6SM SKC 
     FM201900 19008KT P6SM SKC 
     FM210100 24006KT P6SM SKC
       
KLSV 201058Z AUTO 01002KT 10SM CLR 20/04 A2996 RMK AO2 SLP126 T02020035
TAF KLSV 2009/2115 08009KT 9999 SKC QNH2990INS 
     BECMG 2019/2020 19012KT 9999 SKC QNH3001INS 
     BECMG 2109/2110 08009KT 9999 FEW150 QNH3004INS TX31/2100Z TN19/2011Z
       
KLAS 201056Z 22006KT 10SM FEW160 20/01 A2993 RMK AO2 SLP116 T02000006
KLAS 201128Z 2012/2112 VRB05KT P6SM FEW250 
     FM201800 08007KT P6SM FEW150 SCT250 
     FM202100 15007KT P6SM FEW150 SCT250 
     FM210200 21009KT P6SM FEW250
       
KHII 201115Z AUTO 00000KT 10SM CLR 22/04 A2994 RMK AO2
KIFP 201135Z AUTO 12006KT 10SM CLR 20/04 A2995 RMK AO2